sensor_id;sensor_type;location;lat;lon;timestamp;P1;durP1;ratioP1;P2;durP2;ratioP2
44564;SDS011;30275;51.822;-0.326;2022-09-09T00:02:19;7.45;;;3.92;;
44564;SDS011;30275;51.822;-0.326;2022-09-09T00:04:50;7.72;;;3.80;;
44564;SDS011;30275;51.822;-0.326;2022-09-09T00:07:37;7.25;;;4.22;;
44564;SDS011;30275;51.822;-0.326;2022-09-09T00:10:37;6.68;;;4.28;;
44564;SDS011;30275;51.822;-0.326;2022-09-09T00:13:18;8.25;;;4.30;;
44564;SDS011;30275;51.822;-0.326;2022-09-09T00:16:30;9.38;;;4.10;;
44564;SDS011;30275;51.822;-0.326;2022-09-09T00:22:17;5.85;;;3.90;;
44564;SDS011;30275;51.822;-0.326;2022-09-09T00:24:54;8.05;;;3.95;;
44564;SDS011;30275;51.822;-0.326;2022-09-09T00:27:28;7.32;;;3.83;;
44564;SDS011;30275;51.822;-0.326;2022-09-09T00:30:19;5.35;;;3.25;;
44564;SDS011;30275;51.822;-0.326;2022-09-09T00:33:22;7.90;;;4.32;;
44564;SDS011;30275;51.822;-0.326;2022-09-09T00:35:44;6.53;;;4.07;;
44564;SDS011;30275;51.822;-0.326;2022-09-09T00:38:31;5.45;;;3.20;;
44564;SDS011;30275;51.822;-0.326;2022-09-09T00:48:38;8.85;;;4.30;;
44564;SDS011;30275;51.822;-0.326;2022-09-09T00:51:21;5.75;;;3.58;;
44564;SDS011;30275;51.822;-0.326;2022-09-09T01:00:14;7.55;;;3.58;;
44564;SDS011;30275;51.822;-0.326;2022-09-09T01:02:56;9.40;;;4.15;;
44564;SDS011;30275;51.822;-0.326;2022-09-09T01:05:30;8.05;;;4.15;;
44564;SDS011;30275;51.822;-0.326;2022-09-09T01:08:02;8.75;;;3.20;;
44564;SDS011;30275;51.822;-0.326;2022-09-09T01:13:04;6.65;;;3.40;;
44564;SDS011;30275;51.822;-0.326;2022-09-09T01:15:38;12.65;;;3.30;;
44564;SDS011;30275;51.822;-0.326;2022-09-09T01:18:08;9.52;;;4.30;;
44564;SDS011;30275;51.822;-0.326;2022-09-09T01:26:13;7.60;;;3.13;;
44564;SDS011;30275;51.822;-0.326;2022-09-09T01:28:42;10.50;;;3.63;;
44564;SDS011;30275;51.822;-0.326;2022-09-09T01:31:11;8.07;;;3.78;;
44564;SDS011;30275;51.822;-0.326;2022-09-09T01:33:41;11.20;;;3.05;;
44564;SDS011;30275;51.822;-0.326;2022-09-09T01:38:37;8.80;;;3.42;;
44564;SDS011;30275;51.822;-0.326;2022-09-09T01:41:03;6.28;;;4.00;;
44564;SDS011;30275;51.822;-0.326;2022-09-09T01:43:29;7.03;;;3.22;;
44564;SDS011;30275;51.822;-0.326;2022-09-09T01:45:55;6.93;;;3.53;;
44564;SDS011;30275;51.822;-0.326;2022-09-09T01:48:24;6.55;;;3.15;;
44564;SDS011;30275;51.822;-0.326;2022-09-09T01:50:50;6.70;;;3.22;;
44564;SDS011;30275;51.822;-0.326;2022-09-09T01:53:17;6.78;;;2.78;;
44564;SDS011;30275;51.822;-0.326;2022-09-09T01:55:50;6.43;;;2.67;;
44564;SDS011;30275;51.822;-0.326;2022-09-09T01:58:37;8.85;;;3.42;;
44564;SDS011;30275;51.822;-0.326;2022-09-09T02:03:52;5.50;;;3.03;;
44564;SDS011;30275;51.822;-0.326;2022-09-09T02:06:25;4.55;;;2.58;;
44564;SDS011;30275;51.822;-0.326;2022-09-09T02:08:56;5.60;;;2.53;;
44564;SDS011;30275;51.822;-0.326;2022-09-09T02:11:23;5.38;;;2.90;;
44564;SDS011;30275;51.822;-0.326;2022-09-09T02:13:52;5.53;;;2.75;;
44564;SDS011;30275;51.822;-0.326;2022-09-09T02:16:28;7.78;;;2.90;;
44564;SDS011;30275;51.822;-0.326;2022-09-09T02:19:11;6.38;;;3.17;;
44564;SDS011;30275;51.822;-0.326;2022-09-09T02:21:43;4.75;;;2.60;;
44564;SDS011;30275;51.822;-0.326;2022-09-09T02:24:10;4.43;;;2.58;;
44564;SDS011;30275;51.822;-0.326;2022-09-09T02:26:40;4.95;;;2.45;;
44564;SDS011;30275;51.822;-0.326;2022-09-09T02:29:10;5.20;;;2.47;;
44564;SDS011;30275;51.822;-0.326;2022-09-09T02:31:39;6.53;;;2.72;;
44564;SDS011;30275;51.822;-0.326;2022-09-09T02:34:08;5.25;;;2.47;;
44564;SDS011;30275;51.822;-0.326;2022-09-09T02:36:36;7.03;;;2.55;;
44564;SDS011;30275;51.822;-0.326;2022-09-09T02:39:05;3.55;;;2.40;;
44564;SDS011;30275;51.822;-0.326;2022-09-09T02:41:33;4.45;;;2.75;;
44564;SDS011;30275;51.822;-0.326;2022-09-09T02:44:01;5.15;;;2.60;;
44564;SDS011;30275;51.822;-0.326;2022-09-09T02:54:29;4.18;;;2.33;;
44564;SDS011;30275;51.822;-0.326;2022-09-09T02:57:00;3.15;;;2.20;;
44564;SDS011;30275;51.822;-0.326;2022-09-09T02:59:31;3.90;;;2.17;;
44564;SDS011;30275;51.822;-0.326;2022-09-09T03:01:57;5.85;;;2.45;;
44564;SDS011;30275;51.822;-0.326;2022-09-09T03:04:23;4.22;;;2.80;;
44564;SDS011;30275;51.822;-0.326;2022-09-09T03:06:49;5.53;;;3.20;;
44564;SDS011;30275;51.822;-0.326;2022-09-09T03:09:15;3.03;;;2.10;;
44564;SDS011;30275;51.822;-0.326;2022-09-09T03:11:41;3.67;;;1.65;;
44564;SDS011;30275;51.822;-0.326;2022-09-09T03:14:07;4.25;;;2.20;;
44564;SDS011;30275;51.822;-0.326;2022-09-09T03:16:33;4.50;;;2.30;;
44564;SDS011;30275;51.822;-0.326;2022-09-09T03:18:59;3.75;;;2.22;;
44564;SDS011;30275;51.822;-0.326;2022-09-09T03:21:25;4.65;;;2.17;;
44564;SDS011;30275;51.822;-0.326;2022-09-09T03:23:51;5.28;;;2.72;;
44564;SDS011;30275;51.822;-0.326;2022-09-09T03:26:17;5.60;;;2.03;;
44564;SDS011;30275;51.822;-0.326;2022-09-09T03:28:43;6.22;;;2.30;;
44564;SDS011;30275;51.822;-0.326;2022-09-09T03:31:10;4.80;;;2.40;;
44564;SDS011;30275;51.822;-0.326;2022-09-09T03:33:38;6.45;;;2.47;;
44564;SDS011;30275;51.822;-0.326;2022-09-09T03:36:06;7.40;;;2.25;;
44564;SDS011;30275;51.822;-0.326;2022-09-09T03:38:33;5.57;;;2.30;;
44564;SDS011;30275;51.822;-0.326;2022-09-09T03:40:59;3.83;;;2.00;;
44564;SDS011;30275;51.822;-0.326;2022-09-09T03:43:26;3.80;;;1.90;;
44564;SDS011;30275;51.822;-0.326;2022-09-09T03:45:53;3.45;;;2.08;;
44564;SDS011;30275;51.822;-0.326;2022-09-09T03:48:21;4.40;;;2.33;;
44564;SDS011;30275;51.822;-0.326;2022-09-09T03:50:48;4.55;;;2.40;;
44564;SDS011;30275;51.822;-0.326;2022-09-09T03:53:15;4.20;;;2.25;;
44564;SDS011;30275;51.822;-0.326;2022-09-09T03:55:46;4.78;;;2.40;;
44564;SDS011;30275;51.822;-0.326;2022-09-09T03:58:13;4.30;;;2.20;;
44564;SDS011;30275;51.822;-0.326;2022-09-09T04:00:40;4.07;;;2.22;;
44564;SDS011;30275;51.822;-0.326;2022-09-09T04:03:10;4.03;;;2.33;;
44564;SDS011;30275;51.822;-0.326;2022-09-09T04:05:36;5.53;;;2.50;;
44564;SDS011;30275;51.822;-0.326;2022-09-09T04:08:07;4.25;;;2.42;;
44564;SDS011;30275;51.822;-0.326;2022-09-09T04:10:33;5.32;;;2.78;;
44564;SDS011;30275;51.822;-0.326;2022-09-09T04:13:02;3.15;;;2.10;;
44564;SDS011;30275;51.822;-0.326;2022-09-09T04:15:31;4.00;;;2.50;;
44564;SDS011;30275;51.822;-0.326;2022-09-09T04:17:57;5.03;;;2.20;;
44564;SDS011;30275;51.822;-0.326;2022-09-09T04:20:22;9.90;;;2.78;;
44564;SDS011;30275;51.822;-0.326;2022-09-09T04:22:48;4.75;;;2.20;;
44564;SDS011;30275;51.822;-0.326;2022-09-09T04:25:14;4.28;;;2.20;;
44564;SDS011;30275;51.822;-0.326;2022-09-09T04:27:40;7.10;;;2.58;;
44564;SDS011;30275;51.822;-0.326;2022-09-09T04:30:06;3.95;;;2.55;;
44564;SDS011;30275;51.822;-0.326;2022-09-09T04:32:35;4.43;;;2.30;;
44564;SDS011;30275;51.822;-0.326;2022-09-09T04:35:02;4.28;;;2.75;;
44564;SDS011;30275;51.822;-0.326;2022-09-09T04:37:28;5.82;;;2.83;;
44564;SDS011;30275;51.822;-0.326;2022-09-09T04:39:53;4.32;;;2.53;;
44564;SDS011;30275;51.822;-0.326;2022-09-09T04:42:19;4.95;;;2.45;;
44564;SDS011;30275;51.822;-0.326;2022-09-09T04:44:45;5.10;;;2.78;;
44564;SDS011;30275;51.822;-0.326;2022-09-09T04:47:11;5.63;;;2.47;;
44564;SDS011;30275;51.822;-0.326;2022-09-09T04:49:36;5.35;;;2.50;;
44564;SDS011;30275;51.822;-0.326;2022-09-09T04:52:03;7.88;;;2.35;;
44564;SDS011;30275;51.822;-0.326;2022-09-09T04:54:29;5.07;;;2.00;;
44564;SDS011;30275;51.822;-0.326;2022-09-09T04:56:55;5.00;;;2.40;;
44564;SDS011;30275;51.822;-0.326;2022-09-09T04:59:21;7.68;;;2.55;;
44564;SDS011;30275;51.822;-0.326;2022-09-09T05:01:47;5.28;;;2.30;;
44564;SDS011;30275;51.822;-0.326;2022-09-09T05:04:13;5.88;;;2.00;;
44564;SDS011;30275;51.822;-0.326;2022-09-09T05:06:41;4.53;;;2.22;;
44564;SDS011;30275;51.822;-0.326;2022-09-09T05:09:07;4.57;;;2.45;;
44564;SDS011;30275;51.822;-0.326;2022-09-09T05:11:33;7.25;;;2.47;;
44564;SDS011;30275;51.822;-0.326;2022-09-09T05:14:01;3.65;;;2.30;;
44564;SDS011;30275;51.822;-0.326;2022-09-09T05:16:28;3.90;;;2.20;;
44564;SDS011;30275;51.822;-0.326;2022-09-09T05:18:54;4.95;;;2.17;;
44564;SDS011;30275;51.822;-0.326;2022-09-09T05:21:21;3.60;;;2.13;;
44564;SDS011;30275;51.822;-0.326;2022-09-09T05:23:48;6.47;;;2.33;;
44564;SDS011;30275;51.822;-0.326;2022-09-09T05:26:16;3.95;;;2.10;;
44564;SDS011;30275;51.822;-0.326;2022-09-09T05:28:43;6.32;;;2.30;;
44564;SDS011;30275;51.822;-0.326;2022-09-09T05:31:10;5.68;;;2.58;;
44564;SDS011;30275;51.822;-0.326;2022-09-09T05:33:38;3.17;;;1.92;;
44564;SDS011;30275;51.822;-0.326;2022-09-09T05:36:08;4.47;;;2.30;;
44564;SDS011;30275;51.822;-0.326;2022-09-09T05:38:39;5.53;;;2.42;;
44564;SDS011;30275;51.822;-0.326;2022-09-09T05:41:05;5.15;;;2.45;;
44564;SDS011;30275;51.822;-0.326;2022-09-09T05:43:32;4.30;;;2.13;;
44564;SDS011;30275;51.822;-0.326;2022-09-09T05:48:33;5.22;;;2.42;;
44564;SDS011;30275;51.822;-0.326;2022-09-09T05:51:02;6.63;;;2.17;;
44564;SDS011;30275;51.822;-0.326;2022-09-09T05:53:28;3.97;;;1.83;;
44564;SDS011;30275;51.822;-0.326;2022-09-09T06:01:04;3.85;;;2.10;;
44564;SDS011;30275;51.822;-0.326;2022-09-09T06:03:38;9.25;;;3.00;;
44564;SDS011;30275;51.822;-0.326;2022-09-09T06:06:09;10.18;;;2.88;;
44564;SDS011;30275;51.822;-0.326;2022-09-09T06:08:37;10.32;;;3.15;;
44564;SDS011;30275;51.822;-0.326;2022-09-09T06:11:05;19.88;;;4.07;;
44564;SDS011;30275;51.822;-0.326;2022-09-09T06:13:36;20.95;;;5.07;;
44564;SDS011;30275;51.822;-0.326;2022-09-09T06:16:05;13.75;;;5.03;;
44564;SDS011;30275;51.822;-0.326;2022-09-09T06:18:33;10.38;;;3.47;;
44564;SDS011;30275;51.822;-0.326;2022-09-09T06:21:02;16.75;;;3.65;;
44564;SDS011;30275;51.822;-0.326;2022-09-09T06:23:29;15.37;;;4.17;;
44564;SDS011;30275;51.822;-0.326;2022-09-09T06:28:30;18.20;;;4.28;;
44564;SDS011;30275;51.822;-0.326;2022-09-09T06:31:00;12.75;;;3.30;;
44564;SDS011;30275;51.822;-0.326;2022-09-09T06:33:32;9.70;;;3.67;;
44564;SDS011;30275;51.822;-0.326;2022-09-09T06:36:00;6.57;;;3.10;;
44564;SDS011;30275;51.822;-0.326;2022-09-09T06:38:26;15.35;;;4.18;;
44564;SDS011;30275;51.822;-0.326;2022-09-09T06:40:56;14.30;;;3.78;;
44564;SDS011;30275;51.822;-0.326;2022-09-09T06:43:23;9.32;;;2.92;;
44564;SDS011;30275;51.822;-0.326;2022-09-09T06:45:54;9.77;;;3.38;;
44564;SDS011;30275;51.822;-0.326;2022-09-09T06:48:24;9.80;;;2.70;;
44564;SDS011;30275;51.822;-0.326;2022-09-09T06:53:31;11.40;;;3.85;;
44564;SDS011;30275;51.822;-0.326;2022-09-09T06:55:59;8.27;;;3.03;;
44564;SDS011;30275;51.822;-0.326;2022-09-09T06:58:27;9.35;;;3.20;;
44564;SDS011;30275;51.822;-0.326;2022-09-09T07:01:01;12.18;;;4.15;;
44564;SDS011;30275;51.822;-0.326;2022-09-09T07:03:33;8.15;;;3.30;;
44564;SDS011;30275;51.822;-0.326;2022-09-09T07:06:00;9.63;;;3.60;;
44564;SDS011;30275;51.822;-0.326;2022-09-09T07:08:26;8.45;;;3.03;;
44564;SDS011;30275;51.822;-0.326;2022-09-09T07:10:52;6.60;;;2.65;;
44564;SDS011;30275;51.822;-0.326;2022-09-09T07:13:25;8.65;;;3.05;;
44564;SDS011;30275;51.822;-0.326;2022-09-09T07:15:51;6.60;;;2.60;;
44564;SDS011;30275;51.822;-0.326;2022-09-09T07:18:17;5.72;;;3.28;;
44564;SDS011;30275;51.822;-0.326;2022-09-09T07:20:52;4.25;;;2.90;;
44564;SDS011;30275;51.822;-0.326;2022-09-09T07:23:19;10.02;;;3.35;;
44564;SDS011;30275;51.822;-0.326;2022-09-09T07:25:45;8.13;;;2.60;;
44564;SDS011;30275;51.822;-0.326;2022-09-09T07:28:11;6.15;;;3.05;;
44564;SDS011;30275;51.822;-0.326;2022-09-09T07:30:36;9.10;;;2.65;;
44564;SDS011;30275;51.822;-0.326;2022-09-09T07:33:02;8.40;;;3.35;;
44564;SDS011;30275;51.822;-0.326;2022-09-09T07:35:28;5.15;;;2.58;;
44564;SDS011;30275;51.822;-0.326;2022-09-09T07:37:54;6.25;;;3.17;;
44564;SDS011;30275;51.822;-0.326;2022-09-09T07:40:20;6.28;;;2.92;;
44564;SDS011;30275;51.822;-0.326;2022-09-09T07:42:46;9.75;;;4.25;;
44564;SDS011;30275;51.822;-0.326;2022-09-09T07:45:13;7.78;;;5.20;;
44564;SDS011;30275;51.822;-0.326;2022-09-09T07:47:39;7.57;;;4.45;;
44564;SDS011;30275;51.822;-0.326;2022-09-09T07:50:07;8.30;;;4.65;;
44564;SDS011;30275;51.822;-0.326;2022-09-09T07:52:34;8.48;;;4.70;;
44564;SDS011;30275;51.822;-0.326;2022-09-09T07:54:59;8.93;;;4.72;;
44564;SDS011;30275;51.822;-0.326;2022-09-09T07:57:27;7.40;;;4.45;;
44564;SDS011;30275;51.822;-0.326;2022-09-09T07:59:55;10.18;;;5.18;;
44564;SDS011;30275;51.822;-0.326;2022-09-09T08:02:21;9.63;;;5.20;;
44564;SDS011;30275;51.822;-0.326;2022-09-09T08:04:48;8.05;;;5.25;;
44564;SDS011;30275;51.822;-0.326;2022-09-09T08:07:13;9.35;;;5.10;;
44564;SDS011;30275;51.822;-0.326;2022-09-09T08:09:39;8.35;;;5.47;;
44564;SDS011;30275;51.822;-0.326;2022-09-09T08:12:05;7.95;;;5.63;;
44564;SDS011;30275;51.822;-0.326;2022-09-09T08:14:31;8.35;;;5.05;;
44564;SDS011;30275;51.822;-0.326;2022-09-09T08:16:57;8.73;;;5.13;;
44564;SDS011;30275;51.822;-0.326;2022-09-09T08:19:23;8.75;;;5.32;;
44564;SDS011;30275;51.822;-0.326;2022-09-09T08:21:49;9.10;;;5.20;;
44564;SDS011;30275;51.822;-0.326;2022-09-09T08:24:14;8.45;;;5.18;;
44564;SDS011;30275;51.822;-0.326;2022-09-09T08:26:42;7.80;;;5.30;;
44564;SDS011;30275;51.822;-0.326;2022-09-09T08:29:09;9.77;;;5.03;;
44564;SDS011;30275;51.822;-0.326;2022-09-09T08:34:10;8.40;;;4.90;;
44564;SDS011;30275;51.822;-0.326;2022-09-09T08:36:37;6.25;;;4.47;;
44564;SDS011;30275;51.822;-0.326;2022-09-09T08:39:06;5.70;;;4.45;;
44564;SDS011;30275;51.822;-0.326;2022-09-09T08:55:24;7.50;;;4.20;;
44564;SDS011;30275;51.822;-0.326;2022-09-09T08:57:54;7.22;;;4.38;;
44564;SDS011;30275;51.822;-0.326;2022-09-09T09:00:22;6.35;;;3.85;;
44564;SDS011;30275;51.822;-0.326;2022-09-09T09:05:58;7.93;;;4.90;;
44564;SDS011;30275;51.822;-0.326;2022-09-09T09:08:46;5.15;;;3.58;;
44564;SDS011;30275;51.822;-0.326;2022-09-09T09:11:20;8.88;;;5.03;;
44564;SDS011;30275;51.822;-0.326;2022-09-09T09:19:08;7.18;;;4.20;;
44564;SDS011;30275;51.822;-0.326;2022-09-09T09:21:40;9.15;;;4.85;;
44564;SDS011;30275;51.822;-0.326;2022-09-09T09:24:18;8.65;;;5.45;;
44564;SDS011;30275;51.822;-0.326;2022-09-09T09:27:11;6.88;;;4.80;;
44564;SDS011;30275;51.822;-0.326;2022-09-09T09:29:39;9.82;;;4.63;;
44564;SDS011;30275;51.822;-0.326;2022-09-09T09:32:08;5.43;;;3.63;;
44564;SDS011;30275;51.822;-0.326;2022-09-09T09:34:38;5.40;;;4.20;;
44564;SDS011;30275;51.822;-0.326;2022-09-09T09:37:16;6.03;;;3.92;;
44564;SDS011;30275;51.822;-0.326;2022-09-09T09:39:48;6.32;;;4.43;;
44564;SDS011;30275;51.822;-0.326;2022-09-09T09:42:16;8.10;;;4.38;;
44564;SDS011;30275;51.822;-0.326;2022-09-09T09:44:43;7.53;;;4.65;;
44564;SDS011;30275;51.822;-0.326;2022-09-09T09:47:11;7.25;;;4.05;;
44564;SDS011;30275;51.822;-0.326;2022-09-09T09:49:38;8.13;;;4.65;;
44564;SDS011;30275;51.822;-0.326;2022-09-09T09:52:05;8.55;;;4.97;;
44564;SDS011;30275;51.822;-0.326;2022-09-09T09:54:39;5.57;;;4.43;;
44564;SDS011;30275;51.822;-0.326;2022-09-09T09:57:08;8.88;;;5.55;;
44564;SDS011;30275;51.822;-0.326;2022-09-09T09:59:37;6.57;;;4.63;;
44564;SDS011;30275;51.822;-0.326;2022-09-09T10:02:18;7.60;;;4.45;;
44564;SDS011;30275;51.822;-0.326;2022-09-09T10:04:46;8.88;;;4.95;;
44564;SDS011;30275;51.822;-0.326;2022-09-09T10:07:13;7.72;;;4.80;;
44564;SDS011;30275;51.822;-0.326;2022-09-09T10:09:51;11.63;;;5.88;;
44564;SDS011;30275;51.822;-0.326;2022-09-09T10:37:00;7.22;;;4.47;;
44564;SDS011;30275;51.822;-0.326;2022-09-09T10:39:37;6.75;;;4.80;;
44564;SDS011;30275;51.822;-0.326;2022-09-09T10:42:15;8.43;;;5.68;;
44564;SDS011;30275;51.822;-0.326;2022-09-09T10:47:16;6.60;;;5.07;;
44564;SDS011;30275;51.822;-0.326;2022-09-09T10:57:42;8.73;;;6.43;;
44564;SDS011;30275;51.822;-0.326;2022-09-09T11:00:22;8.65;;;6.28;;
44564;SDS011;30275;51.822;-0.326;2022-09-09T11:05:17;7.72;;;5.80;;
44564;SDS011;30275;51.822;-0.326;2022-09-09T11:07:59;8.60;;;6.40;;
44564;SDS011;30275;51.822;-0.326;2022-09-09T11:14:30;9.00;;;6.22;;
44564;SDS011;30275;51.822;-0.326;2022-09-09T11:19:28;9.05;;;6.60;;
44564;SDS011;30275;51.822;-0.326;2022-09-09T11:22:00;7.47;;;5.15;;
44564;SDS011;30275;51.822;-0.326;2022-09-09T11:24:35;8.63;;;5.82;;
44564;SDS011;30275;51.822;-0.326;2022-09-09T11:32:41;10.30;;;5.65;;
44564;SDS011;30275;51.822;-0.326;2022-09-09T11:35:26;10.45;;;6.03;;
44564;SDS011;30275;51.822;-0.326;2022-09-09T11:40:40;7.97;;;4.88;;
44564;SDS011;30275;51.822;-0.326;2022-09-09T11:43:19;11.70;;;5.00;;
44564;SDS011;30275;51.822;-0.326;2022-09-09T11:45:57;7.05;;;4.68;;
44564;SDS011;30275;51.822;-0.326;2022-09-09T11:51:12;7.38;;;4.75;;
44564;SDS011;30275;51.822;-0.326;2022-09-09T11:53:52;8.35;;;4.55;;
44564;SDS011;30275;51.822;-0.326;2022-09-09T11:56:26;6.22;;;4.60;;
44564;SDS011;30275;51.822;-0.326;2022-09-09T12:01:43;7.85;;;4.43;;
44564;SDS011;30275;51.822;-0.326;2022-09-09T12:14:37;8.75;;;7.20;;
44564;SDS011;30275;51.822;-0.326;2022-09-09T12:17:25;12.20;;;7.65;;
44564;SDS011;30275;51.822;-0.326;2022-09-09T12:25:47;12.02;;;7.88;;
44564;SDS011;30275;51.822;-0.326;2022-09-09T12:28:41;15.80;;;9.15;;
44564;SDS011;30275;51.822;-0.326;2022-09-09T12:34:21;14.13;;;9.02;;
44564;SDS011;30275;51.822;-0.326;2022-09-09T12:37:14;12.75;;;8.35;;
44564;SDS011;30275;51.822;-0.326;2022-09-09T12:39:45;11.73;;;7.60;;
44564;SDS011;30275;51.822;-0.326;2022-09-09T12:42:20;11.73;;;7.45;;
44564;SDS011;30275;51.822;-0.326;2022-09-09T12:44:54;8.93;;;5.50;;
44564;SDS011;30275;51.822;-0.326;2022-09-09T12:47:33;9.32;;;5.60;;
44564;SDS011;30275;51.822;-0.326;2022-09-09T12:50:11;7.90;;;6.20;;
44564;SDS011;30275;51.822;-0.326;2022-09-09T12:52:42;7.88;;;5.40;;
44564;SDS011;30275;51.822;-0.326;2022-09-09T12:55:15;9.00;;;5.22;;
44564;SDS011;30275;51.822;-0.326;2022-09-09T12:57:43;8.15;;;5.05;;
44564;SDS011;30275;51.822;-0.326;2022-09-09T13:00:14;6.97;;;4.88;;
44564;SDS011;30275;51.822;-0.326;2022-09-09T13:02:57;7.90;;;4.78;;
44564;SDS011;30275;51.822;-0.326;2022-09-09T13:05:35;7.35;;;4.63;;
44564;SDS011;30275;51.822;-0.326;2022-09-09T13:08:12;7.75;;;4.95;;
44564;SDS011;30275;51.822;-0.326;2022-09-09T13:13:29;7.95;;;4.28;;
44564;SDS011;30275;51.822;-0.326;2022-09-09T13:16:17;6.82;;;4.93;;
44564;SDS011;30275;51.822;-0.326;2022-09-09T13:18:57;7.00;;;5.22;;
44564;SDS011;30275;51.822;-0.326;2022-09-09T13:21:34;7.43;;;4.85;;
44564;SDS011;30275;51.822;-0.326;2022-09-09T13:24:03;8.18;;;5.43;;
44564;SDS011;30275;51.822;-0.326;2022-09-09T13:26:32;7.18;;;5.35;;
44564;SDS011;30275;51.822;-0.326;2022-09-09T13:29:15;10.48;;;6.10;;
44564;SDS011;30275;51.822;-0.326;2022-09-09T13:31:45;10.10;;;5.57;;
44564;SDS011;30275;51.822;-0.326;2022-09-09T13:34:25;8.40;;;6.00;;
44564;SDS011;30275;51.822;-0.326;2022-09-09T13:36:54;8.82;;;5.80;;
44564;SDS011;30275;51.822;-0.326;2022-09-09T13:39:27;7.70;;;5.10;;
44564;SDS011;30275;51.822;-0.326;2022-09-09T13:41:53;9.55;;;5.78;;
44564;SDS011;30275;51.822;-0.326;2022-09-09T13:44:27;8.13;;;4.85;;
44564;SDS011;30275;51.822;-0.326;2022-09-09T13:46:59;8.15;;;4.63;;
44564;SDS011;30275;51.822;-0.326;2022-09-09T13:49:34;7.30;;;4.80;;
44564;SDS011;30275;51.822;-0.326;2022-09-09T13:52:04;7.13;;;4.35;;
44564;SDS011;30275;51.822;-0.326;2022-09-09T13:54:31;11.43;;;5.07;;
44564;SDS011;30275;51.822;-0.326;2022-09-09T13:56:56;11.02;;;5.35;;
44564;SDS011;30275;51.822;-0.326;2022-09-09T13:59:22;10.18;;;4.32;;
44564;SDS011;30275;51.822;-0.326;2022-09-09T14:01:49;8.70;;;4.57;;
44564;SDS011;30275;51.822;-0.326;2022-09-09T14:04:17;11.15;;;4.60;;
44564;SDS011;30275;51.822;-0.326;2022-09-09T14:06:46;12.82;;;4.82;;
44564;SDS011;30275;51.822;-0.326;2022-09-09T14:09:18;11.82;;;4.40;;
44564;SDS011;30275;51.822;-0.326;2022-09-09T14:11:44;9.38;;;4.75;;
44564;SDS011;30275;51.822;-0.326;2022-09-09T14:14:13;8.43;;;4.30;;
44564;SDS011;30275;51.822;-0.326;2022-09-09T14:16:38;8.35;;;3.95;;
44564;SDS011;30275;51.822;-0.326;2022-09-09T14:19:04;8.57;;;4.78;;
44564;SDS011;30275;51.822;-0.326;2022-09-09T14:21:30;6.68;;;3.47;;
44564;SDS011;30275;51.822;-0.326;2022-09-09T14:23:56;5.22;;;3.38;;
44564;SDS011;30275;51.822;-0.326;2022-09-09T14:26:23;5.25;;;3.13;;
44564;SDS011;30275;51.822;-0.326;2022-09-09T14:28:49;4.40;;;2.85;;
44564;SDS011;30275;51.822;-0.326;2022-09-09T14:31:15;5.07;;;3.00;;
44564;SDS011;30275;51.822;-0.326;2022-09-09T14:33:42;4.18;;;3.00;;
44564;SDS011;30275;51.822;-0.326;2022-09-09T14:36:08;3.92;;;2.75;;
44564;SDS011;30275;51.822;-0.326;2022-09-09T14:38:35;4.50;;;2.80;;
44564;SDS011;30275;51.822;-0.326;2022-09-09T14:41:05;4.22;;;2.47;;
44564;SDS011;30275;51.822;-0.326;2022-09-09T14:43:31;3.88;;;2.70;;
44564;SDS011;30275;51.822;-0.326;2022-09-09T14:46:03;6.70;;;3.03;;
44564;SDS011;30275;51.822;-0.326;2022-09-09T14:48:36;5.72;;;2.85;;
44564;SDS011;30275;51.822;-0.326;2022-09-09T14:51:13;7.90;;;3.15;;
44564;SDS011;30275;51.822;-0.326;2022-09-09T14:53:44;5.82;;;2.70;;
44564;SDS011;30275;51.822;-0.326;2022-09-09T14:56:14;5.55;;;2.85;;
44564;SDS011;30275;51.822;-0.326;2022-09-09T14:58:41;5.15;;;2.72;;
44564;SDS011;30275;51.822;-0.326;2022-09-09T15:01:09;4.55;;;2.80;;
44564;SDS011;30275;51.822;-0.326;2022-09-09T15:03:39;6.07;;;2.85;;
44564;SDS011;30275;51.822;-0.326;2022-09-09T15:06:09;3.65;;;2.50;;
44564;SDS011;30275;51.822;-0.326;2022-09-09T15:08:37;2.80;;;2.40;;
44564;SDS011;30275;51.822;-0.326;2022-09-09T15:11:05;4.20;;;2.72;;
44564;SDS011;30275;51.822;-0.326;2022-09-09T15:13:35;3.42;;;2.58;;
44564;SDS011;30275;51.822;-0.326;2022-09-09T15:16:08;4.18;;;2.47;;
44564;SDS011;30275;51.822;-0.326;2022-09-09T15:18:36;4.78;;;2.55;;
44564;SDS011;30275;51.822;-0.326;2022-09-09T15:21:07;4.03;;;2.00;;
44564;SDS011;30275;51.822;-0.326;2022-09-09T15:23:36;4.43;;;2.40;;
44564;SDS011;30275;51.822;-0.326;2022-09-09T15:26:03;4.43;;;2.30;;
44564;SDS011;30275;51.822;-0.326;2022-09-09T15:28:30;3.90;;;2.20;;
44564;SDS011;30275;51.822;-0.326;2022-09-09T15:31:04;2.50;;;1.77;;
44564;SDS011;30275;51.822;-0.326;2022-09-09T15:33:32;3.03;;;1.85;;
44564;SDS011;30275;51.822;-0.326;2022-09-09T15:35:58;5.35;;;2.45;;
44564;SDS011;30275;51.822;-0.326;2022-09-09T15:38:24;4.53;;;2.00;;
44564;SDS011;30275;51.822;-0.326;2022-09-09T15:40:56;4.80;;;2.20;;
44564;SDS011;30275;51.822;-0.326;2022-09-09T15:43:22;6.22;;;2.40;;
44564;SDS011;30275;51.822;-0.326;2022-09-09T15:45:48;4.50;;;2.35;;
44564;SDS011;30275;51.822;-0.326;2022-09-09T15:48:23;6.68;;;2.55;;
44564;SDS011;30275;51.822;-0.326;2022-09-09T15:51:02;4.20;;;2.10;;
44564;SDS011;30275;51.822;-0.326;2022-09-09T15:53:29;4.82;;;1.95;;
44564;SDS011;30275;51.822;-0.326;2022-09-09T15:55:57;8.00;;;2.67;;
44564;SDS011;30275;51.822;-0.326;2022-09-09T15:58:23;6.47;;;2.38;;
44564;SDS011;30275;51.822;-0.326;2022-09-09T16:00:48;4.43;;;2.05;;
44564;SDS011;30275;51.822;-0.326;2022-09-09T16:03:14;3.97;;;2.33;;
44564;SDS011;30275;51.822;-0.326;2022-09-09T16:05:40;6.53;;;3.95;;
44564;SDS011;30275;51.822;-0.326;2022-09-09T16:08:06;9.15;;;2.58;;
44564;SDS011;30275;51.822;-0.326;2022-09-09T16:10:32;9.32;;;2.70;;
44564;SDS011;30275;51.822;-0.326;2022-09-09T16:12:57;7.20;;;2.92;;
44564;SDS011;30275;51.822;-0.326;2022-09-09T16:15:23;7.57;;;2.67;;
44564;SDS011;30275;51.822;-0.326;2022-09-09T16:17:52;5.43;;;2.88;;
44564;SDS011;30275;51.822;-0.326;2022-09-09T16:20:18;5.55;;;2.88;;
44564;SDS011;30275;51.822;-0.326;2022-09-09T16:22:45;8.35;;;2.90;;
44564;SDS011;30275;51.822;-0.326;2022-09-09T16:25:11;7.05;;;3.47;;
44564;SDS011;30275;51.822;-0.326;2022-09-09T16:27:36;5.03;;;2.60;;
44564;SDS011;30275;51.822;-0.326;2022-09-09T16:30:02;5.20;;;3.88;;
44564;SDS011;30275;51.822;-0.326;2022-09-09T16:32:28;18.45;;;13.77;;
44564;SDS011;30275;51.822;-0.326;2022-09-09T16:34:53;20.05;;;15.02;;
44564;SDS011;30275;51.822;-0.326;2022-09-09T16:37:19;14.73;;;11.80;;
44564;SDS011;30275;51.822;-0.326;2022-09-09T16:39:45;15.63;;;11.75;;
44564;SDS011;30275;51.822;-0.326;2022-09-09T16:42:10;15.18;;;10.45;;
44564;SDS011;30275;51.822;-0.326;2022-09-09T16:44:36;14.40;;;10.50;;
44564;SDS011;30275;51.822;-0.326;2022-09-09T16:47:02;13.90;;;9.40;;
44564;SDS011;30275;51.822;-0.326;2022-09-09T16:49:28;13.93;;;9.35;;
44564;SDS011;30275;51.822;-0.326;2022-09-09T16:51:53;14.27;;;8.45;;
44564;SDS011;30275;51.822;-0.326;2022-09-09T16:54:22;11.48;;;8.02;;
44564;SDS011;30275;51.822;-0.326;2022-09-09T16:56:50;10.65;;;7.68;;
44564;SDS011;30275;51.822;-0.326;2022-09-09T16:59:17;10.75;;;7.25;;
44564;SDS011;30275;51.822;-0.326;2022-09-09T17:01:44;7.72;;;6.10;;
44564;SDS011;30275;51.822;-0.326;2022-09-09T17:04:32;10.77;;;6.97;;
44564;SDS011;30275;51.822;-0.326;2022-09-09T17:06:58;8.07;;;5.60;;
44564;SDS011;30275;51.822;-0.326;2022-09-09T17:09:25;10.77;;;5.75;;
44564;SDS011;30275;51.822;-0.326;2022-09-09T17:11:56;9.45;;;5.00;;
44564;SDS011;30275;51.822;-0.326;2022-09-09T17:14:21;7.35;;;4.18;;
44564;SDS011;30275;51.822;-0.326;2022-09-09T17:16:48;9.25;;;4.03;;
44564;SDS011;30275;51.822;-0.326;2022-09-09T17:19:14;6.38;;;4.72;;
44564;SDS011;30275;51.822;-0.326;2022-09-09T17:21:41;7.95;;;3.83;;
44564;SDS011;30275;51.822;-0.326;2022-09-09T17:24:06;9.85;;;3.67;;
44564;SDS011;30275;51.822;-0.326;2022-09-09T17:26:32;7.57;;;3.17;;